Time;durP1;ratioP1;P1;durP2;ratioP2;P2;SDS_P1;SDS_P2;PMS_P1;PMS_P2;Temp;Humidity;BMP_temperature;BMP_pressure;BME280_temperature;BME280_humidity;BME280_pressure;Samples;Min_cycle;Max_cycle;Signal;HPM_P1;HPM_P2
2021/09/12 00:01:23;;;;;;;14.55;9.80;;;;;;;17.96;85.79;101630.44;4932451;29;20031;-79
2021/09/12 00:03:48;;;;;;;18.48;10.77;;;;;;;17.76;87.07;101629.38;4931195;28;20098;-79
2021/09/12 00:06:14;;;;;;;12.82;10.20;;;;;;;17.84;86.62;101632.63;4933139;28;20086;-80
2021/09/12 00:08:39;;;;;;;14.05;10.25;;;;;;;17.71;87.29;101629.38;4946245;28;20035;-79
2021/09/12 00:11:05;;;;;;;14.82;10.38;;;;;;;17.63;88.24;101626.41;4934079;28;20603;-82
2021/09/12 00:13:31;;;;;;;13.30;10.30;;;;;;;17.64;87.60;101626.13;4934775;29;20039;-82
2021/09/12 00:15:56;;;;;;;15.65;11.18;;;;;;;17.65;87.29;101621.50;4935217;28;20030;-82
2021/09/12 00:18:22;;;;;;;14.30;11.30;;;;;;;17.50;88.41;101622.34;4952489;28;20019;-84
2021/09/12 00:20:47;;;;;;;13.40;10.48;;;;;;;17.52;87.50;101618.28;4937773;28;20027;-82
2021/09/12 00:23:13;;;;;;;12.80;10.30;;;;;;;17.57;86.65;101619.34;4950298;28;20043;-81
2021/09/12 00:25:39;;;;;;;14.20;10.32;;;;;;;17.46;87.09;101622.09;4932529;29;20463;-83
2021/09/12 00:28:04;;;;;;;14.50;10.50;;;;;;;17.42;87.29;101617.50;4938810;28;20054;-81
2021/09/12 00:30:30;;;;;;;12.13;9.73;;;;;;;17.31;88.18;101610.44;4936635;29;20206;-81
2021/09/12 00:32:56;;;;;;;13.43;10.10;;;;;;;17.20;88.68;101623.97;4935625;28;20042;-81
2021/09/12 00:35:21;;;;;;;12.20;9.52;;;;;;;17.34;87.27;101621.53;4937968;29;20276;-81
2021/09/12 00:37:50;;;;;;;15.00;10.95;;;;;;;17.29;87.45;101618.84;4937281;28;20028;-81
2021/09/12 00:40:19;;;;;;;13.45;10.40;;;;;;;17.27;87.13;101612.09;4938210;29;20034;-82
2021/09/12 00:42:45;;;;;;;13.23;9.45;;;;;;;17.35;86.22;101612.34;4937866;28;20094;-81
2021/09/12 00:45:11;;;;;;;14.32;9.80;;;;;;;17.31;86.20;101608.56;4941389;29;20082;-81
2021/09/12 00:47:37;;;;;;;15.05;10.60;;;;;;;17.34;85.54;101616.13;4938109;29;20027;-82
2021/09/12 00:50:02;;;;;;;13.50;10.05;;;;;;;17.35;85.04;101614.22;4932143;28;20023;-83
2021/09/12 00:52:31;;;;;;;12.70;9.98;;;;;;;17.22;85.63;101615.59;4937601;28;20038;-81
2021/09/12 00:55:00;;;;;;;15.60;10.95;;;;;;;17.09;86.59;101621.56;4931130;28;20027;-81
2021/09/12 00:57:25;;;;;;;15.13;9.77;;;;;;;17.14;85.75;101618.84;4931454;29;20035;-83
2021/09/12 00:59:53;;;;;;;15.05;9.95;;;;;;;17.11;85.26;101614.78;4954414;28;20035;-82
2021/09/12 01:02:19;;;;;;;12.93;9.93;;;;;;;17.08;85.13;101611.81;4937316;29;20114;-83
2021/09/12 01:04:45;;;;;;;15.80;10.00;;;;;;;17.06;84.96;101614.78;4936676;28;20474;-82
2021/09/12 01:07:10;;;;;;;15.13;9.98;;;;;;;17.01;84.71;101617.47;4938772;28;20038;-84
2021/09/12 01:09:37;;;;;;;13.52;10.15;;;;;;;17.04;84.47;101622.34;4935636;29;20164;-83
2021/09/12 01:12:04;;;;;;;12.75;10.73;;;;;;;17.03;84.15;101618.00;4933654;28;20041;-83
2021/09/12 01:14:32;;;;;;;12.20;9.63;;;;;;;16.98;84.09;101618.03;4937504;29;20031;-81
2021/09/12 01:16:59;;;;;;;15.60;10.20;;;;;;;16.94;84.16;101614.22;4954078;28;20031;-81
2021/09/12 01:19:25;;;;;;;15.98;10.93;;;;;;;16.86;84.05;101626.38;4934276;29;20015;-83
2021/09/12 01:22:03;;;;;;;15.75;11.38;;;;;;;16.80;83.89;101623.94;4938830;28;20039;-82
2021/09/12 01:24:29;;;;;;;17.98;11.40;;;;;;;16.75;84.28;101623.94;4931859;29;20087;-82
2021/09/12 01:26:55;;;;;;;16.55;12.27;;;;;;;16.68;84.58;101626.09;4934490;28;20793;-82
2021/09/12 01:29:21;;;;;;;19.00;12.82;;;;;;;16.61;84.84;101626.31;4948705;28;20023;-82
2021/09/12 01:31:48;;;;;;;20.02;12.50;;;;;;;16.57;84.92;101617.94;4952261;28;20474;-83
2021/09/12 01:34:14;;;;;;;18.10;12.63;;;;;;;16.54;84.91;101621.16;4937534;29;20106;-82
2021/09/12 01:36:40;;;;;;;19.60;12.50;;;;;;;16.49;85.31;101615.72;4931853;29;20035;-83
2021/09/12 01:39:06;;;;;;;19.42;13.65;;;;;;;16.38;86.26;101619.50;4951432;28;20094;-81
2021/09/12 01:41:32;;;;;;;17.80;13.23;;;;;;;16.36;85.83;101620.84;4936996;29;20023;-83
2021/09/12 01:44:00;;;;;;;20.58;14.02;;;;;;;16.32;85.99;101620.53;4941079;28;20038;-81
2021/09/12 01:46:26;;;;;;;19.13;14.07;;;;;;;16.24;86.41;101616.47;4936790;29;20612;-81
2021/09/12 01:48:55;;;;;;;20.95;13.90;;;;;;;16.19;86.54;101631.88;4935836;28;20091;-80
2021/09/12 01:51:21;;;;;;;17.05;13.15;;;;;;;16.12;86.81;101631.28;4953997;28;20026;-81
2021/09/12 01:53:47;;;;;;;18.67;13.95;;;;;;;16.06;87.06;101629.63;4936871;28;20031;-82
2021/09/12 01:56:14;;;;;;;20.27;14.13;;;;;;;16.00;87.59;101634.22;4936570;29;20103;-81
2021/09/12 01:58:39;;;;;;;19.98;13.48;;;;;;;15.96;87.55;101628.50;4938002;29;20039;-81
2021/09/12 02:01:05;;;;;;;17.77;13.13;;;;;;;15.85;88.36;101628.72;4938728;28;20023;-81
2021/09/12 02:03:31;;;;;;;20.50;13.43;;;;;;;15.87;87.78;101623.88;4934113;29;20026;-82
2021/09/12 02:05:57;;;;;;;20.60;13.52;;;;;;;15.81;87.95;101627.63;4954583;28;20490;-81
2021/09/12 02:08:22;;;;;;;19.75;14.27;;;;;;;15.68;88.65;101627.00;4939133;29;20082;-82
2021/09/12 02:10:48;;;;;;;21.10;14.07;;;;;;;15.68;88.47;101621.59;4949831;28;20031;-81
2021/09/12 02:16:29;;;;;;;20.48;14.25;;;;;;;15.55;90.11;101621.19;4912791;28;20035;-82
2021/09/12 02:18:54;;;;;;;19.33;13.35;;;;;;;15.65;88.76;101624.00;4954818;28;20094;-81
2021/09/12 02:21:20;;;;;;;20.95;13.07;;;;;;;15.64;89.05;101620.50;4939155;29;20034;-81
2021/09/12 02:23:45;;;;;;;18.98;12.55;;;;;;;15.64;88.87;101628.59;4955492;28;20099;-81
2021/09/12 02:26:11;;;;;;;19.13;13.63;;;;;;;15.62;89.16;101616.44;4936032;29;20046;-81
2021/09/12 02:28:36;;;;;;;18.75;12.77;;;;;;;15.64;88.81;101619.69;4937688;29;20103;-81
2021/09/12 02:31:02;;;;;;;22.08;13.73;;;;;;;15.58;89.13;101620.66;4952927;28;20038;-81
2021/09/12 02:33:28;;;;;;;20.45;14.15;;;;;;;15.56;89.47;101618.22;4939945;29;20034;-81
2021/09/12 02:35:53;;;;;;;16.77;12.15;;;;;;;15.57;89.23;101616.34;4954640;28;20019;-82
2021/09/12 02:38:19;;;;;;;18.20;12.88;;;;;;;15.50;89.34;101621.16;4957753;28;20031;-81
2021/09/12 02:40:44;;;;;;;19.38;12.57;;;;;;;15.49;89.16;101614.94;4938640;28;20050;-82
2021/09/12 02:43:11;;;;;;;20.23;13.10;;;;;;;15.47;89.42;101613.59;4948902;29;20027;-82
2021/09/12 02:45:37;;;;;;;23.50;13.15;;;;;;;15.42;89.67;101615.16;4950832;29;20035;-82
2021/09/12 02:48:03;;;;;;;19.42;12.57;;;;;;;15.46;89.41;101615.47;4948009;28;20042;-84
2021/09/12 02:50:29;;;;;;;20.38;13.32;;;;;;;15.42;89.71;101607.06;4942752;29;20059;-81
2021/09/12 02:52:54;;;;;;;21.55;13.13;;;;;;;15.42;89.71;101611.66;4951213;28;20114;-80
2021/09/12 02:55:20;;;;;;;17.85;12.85;;;;;;;15.34;90.03;101615.66;4940756;29;20031;-83
2021/09/12 02:57:45;;;;;;;19.40;12.82;;;;;;;15.30;89.83;101617.25;4948537;28;20036;-81
2021/09/12 03:00:11;;;;;;;19.55;13.27;;;;;;;15.24;90.87;101618.25;4935429;29;20027;-80
2021/09/12 03:02:37;;;;;;;17.90;12.88;;;;;;;15.28;89.75;101619.41;4934743;29;20030;-80
2021/09/12 03:05:03;;;;;;;17.95;12.77;;;;;;;15.24;90.02;101620.97;4940461;28;20090;-81
2021/09/12 03:07:28;;;;;;;18.05;12.50;;;;;;;15.12;91.19;101614.94;4933057;29;20063;-81
2021/09/12 03:09:54;;;;;;;20.13;11.80;;;;;;;15.09;91.00;101615.47;4934612;28;20031;-81
2021/09/12 03:12:19;;;;;;;19.92;13.02;;;;;;;15.07;90.82;101615.69;4933471;29;20028;-81
2021/09/12 03:14:45;;;;;;;19.83;12.75;;;;;;;15.00;91.80;101611.59;4935984;28;20038;-81
2021/09/12 03:17:11;;;;;;;22.17;13.15;;;;;;;15.03;91.20;101611.06;4952210;28;20501;-82
2021/09/12 03:19:37;;;;;;;19.67;13.07;;;;;;;15.12;90.66;101604.13;4934262;29;20023;-81
2021/09/12 03:22:03;;;;;;;18.55;13.40;;;;;;;15.12;90.53;101609.53;4952028;28;20031;-81
2021/09/12 03:24:29;;;;;;;19.83;12.82;;;;;;;15.15;90.40;101606.31;4932920;29;20561;-81
2021/09/12 03:26:54;;;;;;;17.50;11.85;;;;;;;15.10;90.56;101608.97;4934670;28;20039;-82
2021/09/12 03:29:19;;;;;;;22.95;13.48;;;;;;;15.03;90.62;101608.38;4933676;29;20028;-81
2021/09/12 03:31:45;;;;;;;17.50;12.55;;;;;;;14.96;90.79;101605.88;4935214;28;20078;-82
2021/09/12 03:34:11;;;;;;;15.90;11.88;;;;;;;14.93;90.92;101605.59;4935577;29;20510;-81
2021/09/12 03:36:36;;;;;;;22.90;14.48;;;;;;;14.90;90.74;101614.19;4927890;28;20027;-82
2021/09/12 03:39:03;;;;;;;21.02;12.73;;;;;;;14.72;92.89;101605.41;4936409;28;20102;-81
2021/09/12 03:41:28;;;;;;;22.67;13.25;;;;;;;14.89;91.51;101607.16;4933528;29;20023;-80
2021/09/12 03:43:54;;;;;;;21.42;14.02;;;;;;;14.84;91.80;101601.72;4962398;28;20900;-81
2021/09/12 03:46:20;;;;;;;25.83;15.30;;;;;;;14.65;93.62;101596.69;4938208;29;20037;-81
2021/09/12 03:48:52;;;;;;;23.85;14.82;;;;;;;14.75;92.02;101601.38;4952782;28;20035;-81
2021/09/12 03:51:17;;;;;;;23.77;13.00;;;;;;;14.72;91.92;101605.41;4934179;29;20035;-81
2021/09/12 03:53:43;;;;;;;19.10;13.77;;;;;;;14.72;92.18;101600.00;4949109;28;20091;-82
2021/09/12 03:56:08;;;;;;;24.38;14.10;;;;;;;14.72;92.00;101591.06;4940142;28;20026;-82
2021/09/12 03:58:34;;;;;;;23.80;14.23;;;;;;;14.71;91.79;101595.66;4937491;29;20027;-81
2021/09/12 04:00:59;;;;;;;22.58;14.30;;;;;;;14.68;92.35;101598.88;4931139;28;20105;-80
2021/09/12 04:03:25;;;;;;;23.35;13.93;;;;;;;14.69;92.19;101588.88;4938059;29;20039;-81
2021/09/12 04:05:50;;;;;;;24.10;13.98;;;;;;;14.70;91.91;101588.63;4934431;28;20038;-81
2021/09/12 04:08:15;;;;;;;20.67;14.40;;;;;;;14.68;91.98;101590.78;4940531;29;20031;-81
2021/09/12 04:10:41;;;;;;;26.42;15.32;;;;;;;14.69;91.68;101592.41;4932063;29;20065;-82
2021/09/12 04:13:06;;;;;;;23.00;15.02;;;;;;;14.69;92.07;101589.69;4938525;28;20023;-82
2021/09/12 04:15:32;;;;;;;22.48;14.63;;;;;;;14.65;92.01;101593.97;4932017;29;20030;-82
2021/09/12 04:17:57;;;;;;;23.60;14.82;;;;;;;14.62;92.72;101594.50;4939918;28;20023;-82
2021/09/12 04:20:23;;;;;;;24.33;15.00;;;;;;;14.59;92.44;101592.31;4939360;29;20031;-83
2021/09/12 04:22:49;;;;;;;23.27;14.32;;;;;;;14.57;92.53;101607.13;4938145;28;20129;-83
2021/09/12 04:25:14;;;;;;;23.83;15.18;;;;;;;14.53;93.53;101604.09;4936375;29;20023;-83
2021/09/12 04:27:40;;;;;;;20.90;13.90;;;;;;;14.55;93.16;101604.69;4939994;28;20034;-85
2021/09/12 04:30:08;;;;;;;26.17;14.85;;;;;;;14.59;92.74;101596.91;4938510;28;20267;-81
2021/09/12 04:32:33;;;;;;;29.27;15.80;;;;;;;14.56;93.23;101595.53;4954234;28;20023;-82
2021/09/12 04:34:59;;;;;;;26.15;15.98;;;;;;;14.55;93.26;101612.78;4935893;28;20500;-82
2021/09/12 04:37:24;;;;;;;26.08;15.27;;;;;;;14.55;93.31;101607.38;4937526;28;20130;-81
2021/09/12 04:39:52;;;;;;;24.75;15.23;;;;;;;14.49;93.78;101609.19;4941420;28;20048;-82
2021/09/12 04:42:18;;;;;;;26.08;16.42;;;;;;;14.51;94.13;101611.63;4923680;28;20039;-82
2021/09/12 04:44:44;;;;;;;28.23;16.15;;;;;;;14.54;93.78;101621.91;4934542;28;20034;-82
2021/09/12 04:47:09;;;;;;;26.67;16.98;;;;;;;14.50;94.17;101613.50;4930215;29;20120;-81
2021/09/12 04:49:35;;;;;;;22.75;15.60;;;;;;;14.55;93.94;101620.06;4927155;29;20062;-82
2021/09/12 04:52:00;;;;;;;25.08;16.58;;;;;;;14.60;93.50;101615.50;4931774;28;20093;-82
2021/09/12 04:54:26;;;;;;;29.40;16.27;;;;;;;14.58;94.21;101620.34;4933436;29;20035;-81
2021/09/12 04:56:51;;;;;;;26.58;16.77;;;;;;;14.57;94.09;101615.22;4928036;28;20090;-84
2021/09/12 04:59:17;;;;;;;27.60;16.15;;;;;;;14.64;93.66;101621.22;4930718;29;20066;-83
2021/09/12 05:01:43;;;;;;;27.35;17.08;;;;;;;14.62;94.34;101624.16;4925563;28;20062;-81
2021/09/12 05:04:08;;;;;;;26.98;17.23;;;;;;;14.69;93.81;101624.78;4930966;29;20031;-82
2021/09/12 05:06:34;;;;;;;26.30;16.77;;;;;;;14.71;93.95;101616.41;4929440;29;20439;-82
2021/09/12 05:09:01;;;;;;;27.10;17.52;;;;;;;14.76;94.18;101624.59;4932010;28;20034;-84
2021/09/12 05:11:26;;;;;;;28.25;17.23;;;;;;;14.84;93.48;101618.72;4932155;29;20039;-84
2021/09/12 05:13:52;;;;;;;26.60;17.15;;;;;;;14.86;94.21;101621.16;4933897;28;20053;-81
2021/09/12 05:16:18;;;;;;;24.58;17.45;;;;;;;14.95;93.80;101622.34;4937730;29;20031;-81
2021/09/12 05:18:43;;;;;;;31.88;19.10;;;;;;;15.04;93.22;101616.19;4945050;28;20031;-82
2021/09/12 05:21:09;;;;;;;28.58;18.13;;;;;;;15.12;92.80;101625.75;4930729;29;20043;-82
2021/09/12 05:23:34;;;;;;;31.50;18.42;;;;;;;15.09;93.72;101623.56;4932830;29;20029;-83
2021/09/12 05:26:00;;;;;;;29.67;18.58;;;;;;;15.16;93.07;101618.75;4941524;28;20117;-85
2021/09/12 05:28:25;;;;;;;29.08;18.92;;;;;;;15.15;93.55;101614.41;4931049;29;20067;-84
2021/09/12 05:30:51;;;;;;;30.70;18.83;;;;;;;15.04;94.91;101621.59;4930995;28;20702;-83
2021/09/12 05:33:17;;;;;;;29.35;17.83;;;;;;;15.05;95.43;101619.72;4931837;29;20095;-83
2021/09/12 05:35:42;;;;;;;26.80;18.08;;;;;;;15.23;94.66;101619.34;4933419;28;20094;-83
2021/09/12 05:38:08;;;;;;;28.20;18.73;;;;;;;15.46;93.67;101625.47;4932910;29;20090;-82
2021/09/12 05:40:34;;;;;;;25.45;17.23;;;;;;;15.69;92.13;101622.41;4930307;29;20019;-82
2021/09/12 05:43:00;;;;;;;28.10;17.52;;;;;;;16.00;91.32;101624.22;4929833;28;20034;-82
2021/09/12 05:45:25;;;;;;;25.65;16.98;;;;;;;16.30;89.91;101623.50;4948252;28;20030;-83
2021/09/12 05:47:51;;;;;;;23.35;17.42;;;;;;;16.51;88.53;101623.56;4942693;28;20237;-82
2021/09/12 05:50:17;;;;;;;26.38;18.10;;;;;;;16.76;87.67;101631.00;4928720;28;20035;-83
2021/09/12 05:52:43;;;;;;;26.27;18.02;;;;;;;16.83;86.92;101626.13;4929434;29;20087;-83
2021/09/12 05:55:09;;;;;;;27.92;18.17;;;;;;;16.63;88.50;101624.97;4931248;29;20063;-82
2021/09/12 05:57:34;;;;;;;25.58;17.67;;;;;;;16.63;88.36;101626.88;4929802;29;20031;-83
2021/09/12 06:00:01;;;;;;;25.08;17.00;;;;;;;16.66;88.63;101628.22;4935962;28;20390;-82
2021/09/12 06:02:27;;;;;;;28.20;18.30;;;;;;;16.68;88.71;101623.38;4933723;29;20023;-84
2021/09/12 06:04:52;;;;;;;28.42;18.38;;;;;;;16.86;88.51;101626.38;4950598;28;20411;-82
2021/09/12 06:07:18;;;;;;;27.40;18.38;;;;;;;17.07;87.37;101623.72;4939243;29;20050;-85
2021/09/12 06:09:51;;;;;;;23.13;16.50;;;;;;;17.17;87.14;101629.13;4931959;28;20039;-85
2021/09/12 06:12:16;;;;;;;25.70;18.73;;;;;;;17.27;86.60;101631.84;4950430;28;20204;-84
2021/09/12 06:14:42;;;;;;;25.65;18.20;;;;;;;17.37;85.73;101623.72;4937569;29;20102;-82
2021/09/12 06:17:07;;;;;;;26.60;17.20;;;;;;;17.43;85.78;101627.25;4941287;28;20046;-85
2021/09/12 06:19:34;;;;;;;23.90;17.55;;;;;;;17.51;85.28;101626.69;4941655;29;20109;-83
2021/09/12 06:22:00;;;;;;;26.33;18.27;;;;;;;17.60;84.97;101626.94;4945376;28;20034;-85
2021/09/12 06:24:25;;;;;;;28.45;18.00;;;;;;;17.59;84.45;101622.59;4941464;29;20027;-83
2021/09/12 06:26:51;;;;;;;25.77;17.90;;;;;;;17.53;85.24;101625.31;4943644;28;20030;-84
2021/09/12 06:29:16;;;;;;;26.98;18.08;;;;;;;17.42;85.77;101629.16;4945249;29;20114;-85
2021/09/12 06:31:42;;;;;;;26.58;17.67;;;;;;;17.51;85.47;101632.09;4941883;28;20140;-83
2021/09/12 06:34:10;;;;;;;25.05;17.90;;;;;;;17.59;84.54;101631.53;4953830;28;20066;-84
2021/09/12 06:36:36;;;;;;;28.27;17.30;;;;;;;17.70;83.64;101632.38;4953176;28;20087;-83
2021/09/12 06:39:02;;;;;;;29.33;20.13;;;;;;;17.63;83.23;101631.81;4950441;28;20566;-84
2021/09/12 06:41:27;;;;;;;29.65;18.95;;;;;;;17.81;82.78;101636.69;4938974;29;20023;-84
2021/09/12 06:43:53;;;;;;;26.85;17.95;;;;;;;18.02;82.22;101632.84;4940460;28;20030;-85
2021/09/12 06:46:18;;;;;;;21.73;17.15;;;;;;;18.22;80.99;101637.38;4939043;29;20031;-83
2021/09/12 06:48:44;;;;;;;24.90;16.40;;;;;;;18.62;80.60;101640.97;4940963;28;20046;-82
2021/09/12 06:51:16;;;;;;;23.23;16.83;;;;;;;18.73;79.73;101636.34;4949163;28;20024;-84
2021/09/12 06:53:41;;;;;;;24.23;16.52;;;;;;;18.96;78.47;101639.16;4931654;28;20038;-83
2021/09/12 06:56:07;;;;;;;22.45;15.88;;;;;;;19.10;77.73;101641.25;4953199;28;20027;-82
2021/09/12 06:58:33;;;;;;;21.77;16.00;;;;;;;19.20;77.28;101631.09;4943336;29;20138;-83
2021/09/12 07:00:58;;;;;;;21.15;15.38;;;;;;;19.38;76.72;101628.75;4938623;28;20102;-82
2021/09/12 07:03:25;;;;;;;25.23;16.15;;;;;;;19.36;76.51;101631.78;4950864;28;20035;-86
2021/09/12 07:05:51;;;;;;;23.25;15.48;;;;;;;19.24;76.41;101636.78;4943898;28;20063;-85
2021/09/12 07:08:17;;;;;;;22.05;15.50;;;;;;;18.91;77.79;101649.25;4953205;28;20051;-86
2021/09/12 07:10:43;;;;;;;23.65;16.13;;;;;;;18.71;77.65;101652.91;4939996;28;20035;-85
2021/09/12 07:13:08;;;;;;;24.63;15.73;;;;;;;18.90;77.92;101650.34;4939641;29;20058;-82
2021/09/12 07:15:34;;;;;;;20.52;14.68;;;;;;;19.00;77.46;101647.53;4944682;28;20035;-83
2021/09/12 07:18:00;;;;;;;19.67;14.75;;;;;;;19.04;77.46;101653.25;4934663;28;20027;-82
2021/09/12 07:20:26;;;;;;;20.40;15.20;;;;;;;18.91;78.02;101652.78;4945530;28;20374;-85
2021/09/12 07:22:51;;;;;;;19.95;14.48;;;;;;;18.83;78.44;101658.78;4929714;28;20038;-83
2021/09/12 07:25:17;;;;;;;26.35;15.18;;;;;;;19.18;77.06;101663.16;4937363;28;20022;-84
2021/09/12 07:27:42;;;;;;;19.58;14.15;;;;;;;19.21;76.64;101667.22;4934766;28;20483;-85
2021/09/12 07:30:10;;;;;;;18.42;13.40;;;;;;;19.10;76.77;101668.41;4939678;28;20091;-83
2021/09/12 07:32:42;;;;;;;24.08;14.77;;;;;;;18.79;78.26;101671.31;4949075;28;20083;-83
2021/09/12 07:35:08;;;;;;;23.20;14.85;;;;;;;18.56;79.45;101674.66;4934535;29;20042;-83
2021/09/12 07:37:34;;;;;;;23.00;15.27;;;;;;;18.56;79.43;101672.75;4928585;29;20031;-84
2021/09/12 07:39:59;;;;;;;21.08;14.60;;;;;;;18.63;79.32;101675.19;4942495;28;20020;-85
2021/09/12 07:42:25;;;;;;;22.15;15.82;;;;;;;18.62;79.38;101678.97;4937079;29;20038;-84
2021/09/12 07:44:51;;;;;;;23.42;16.70;;;;;;;18.57;79.58;101677.09;4944328;28;20186;-83
2021/09/12 07:47:17;;;;;;;22.85;16.40;;;;;;;18.34;81.01;101678.56;4940828;29;20611;-83
2021/09/12 07:49:43;;;;;;;21.83;16.70;;;;;;;18.24;81.69;101680.50;4941005;29;20047;-85
2021/09/12 07:52:08;;;;;;;25.02;16.95;;;;;;;18.42;81.14;101675.25;4954267;28;20050;-85
2021/09/12 07:54:34;;;;;;;25.48;16.30;;;;;;;18.61;80.24;101683.59;4935790;29;20171;-84
2021/09/12 07:57:00;;;;;;;23.75;15.90;;;;;;;18.80;79.12;101682.97;4941638;28;20030;-83
2021/09/12 07:59:29;;;;;;;24.45;16.58;;;;;;;18.79;79.09;101684.88;4927621;29;20126;-83
2021/09/12 08:01:55;;;;;;;24.75;16.80;;;;;;;19.02;78.64;101677.94;4941760;28;20853;-83
2021/09/12 08:04:21;;;;;;;27.35;16.30;;;;;;;19.46;76.60;101667.03;4931101;29;20118;-85
2021/09/12 08:06:47;;;;;;;22.55;15.93;;;;;;;19.63;75.77;101674.78;4932619;28;20055;-83
2021/09/12 08:09:13;;;;;;;23.02;16.15;;;;;;;19.80;74.93;101671.63;4933309;29;20027;-84
2021/09/12 08:11:38;;;;;;;23.30;15.73;;;;;;;19.87;74.54;101678.34;4937229;29;20035;-85
2021/09/12 08:14:04;;;;;;;24.17;16.40;;;;;;;19.43;76.29;101688.53;4950758;28;20097;-84
2021/09/12 08:16:30;;;;;;;26.38;15.23;;;;;;;19.82;74.79;101680.31;4947662;28;20571;-84
2021/09/12 08:18:56;;;;;;;22.75;16.15;;;;;;;19.50;76.62;101683.56;4936975;28;20035;-84
2021/09/12 08:21:22;;;;;;;21.73;14.73;;;;;;;19.96;75.17;101683.97;4937431;28;20127;-85
2021/09/12 08:23:49;;;;;;;28.02;16.30;;;;;;;19.67;75.73;101683.16;4938734;29;20118;-85
2021/09/12 08:26:15;;;;;;;23.05;15.27;;;;;;;19.72;75.69;101685.84;4940934;29;20393;-86
2021/09/12 08:28:40;;;;;;;22.83;14.75;;;;;;;19.63;75.61;101690.28;4941306;28;20031;-84
2021/09/12 08:31:06;;;;;;;22.55;15.07;;;;;;;19.64;75.26;101690.00;4938236;28;20092;-83
2021/09/12 08:33:32;;;;;;;19.92;15.25;;;;;;;19.46;75.57;101696.91;4942610;28;20031;-84
2021/09/12 08:35:57;;;;;;;22.73;16.00;;;;;;;19.26;76.94;101697.09;4936609;28;20023;-85
2021/09/12 08:38:23;;;;;;;18.50;14.15;;;;;;;19.31;76.72;101695.13;4936251;28;20042;-85
2021/09/12 08:40:55;;;;;;;22.75;15.40;;;;;;;19.39;76.62;101698.31;4932664;28;20040;-84
2021/09/12 08:43:21;;;;;;;22.52;14.68;;;;;;;19.52;75.82;101700.41;4932487;28;20493;-83
2021/09/12 08:45:48;;;;;;;21.35;14.13;;;;;;;19.41;76.30;101696.16;4933215;29;20066;-84
2021/09/12 08:48:14;;;;;;;20.73;14.70;;;;;;;19.35;76.32;101694.56;4930733;29;20042;-83
2021/09/12 08:50:40;;;;;;;21.52;14.65;;;;;;;19.81;74.71;101689.56;4931530;29;20031;-85
2021/09/12 08:53:06;;;;;;;19.15;14.10;;;;;;;19.94;73.85;101690.81;4953173;28;20089;-84
2021/09/12 08:55:31;;;;;;;21.92;14.38;;;;;;;19.99;73.64;101690.75;4935363;28;21263;-84
2021/09/12 08:57:59;;;;;;;21.15;14.95;;;;;;;19.34;75.00;101696.47;4936855;28;20024;-84
2021/09/12 09:00:25;;;;;;;21.58;14.65;;;;;;;19.68;74.20;101690.22;4937742;29;20031;-85
2021/09/12 09:02:57;;;;;;;17.48;13.27;;;;;;;19.87;73.64;101700.09;4940300;28;20058;-84
2021/09/12 09:05:35;;;;;;;19.63;14.65;;;;;;;19.86;73.43;101701.19;4951687;28;20032;-85
2021/09/12 09:08:16;;;;;;;20.25;12.68;;;;;;;20.83;70.27;101693.84;4937281;28;20031;-85
2021/09/12 09:10:44;;;;;;;16.58;12.43;;;;;;;20.58;69.25;101690.34;4933537;29;20269;-84
2021/09/12 09:13:35;;;;;;;15.13;12.15;;;;;;;20.76;69.84;101695.00;4934128;28;20034;-84
2021/09/12 09:16:07;;;;;;;15.60;11.48;;;;;;;20.63;70.12;101694.91;4947818;28;20796;-84
2021/09/12 09:18:38;;;;;;;14.20;11.70;;;;;;;20.25;70.33;101699.44;4931526;29;20032;-84
2021/09/12 09:21:27;;;;;;;13.15;11.43;;;;;;;20.31;70.65;101692.84;4933272;28;20089;-84
2021/09/12 09:24:13;;;;;;;14.07;10.95;;;;;;;20.46;70.53;101698.91;4935113;29;20041;-84
2021/09/12 09:26:51;;;;;;;14.27;11.10;;;;;;;20.53;69.29;101693.13;4936287;29;20390;-86
2021/09/12 09:29:27;;;;;;;15.35;12.50;;;;;;;20.14;71.69;101694.13;4946351;28;20445;-84
2021/09/12 09:32:06;;;;;;;13.52;11.05;;;;;;;20.05;71.16;101687.66;4948172;28;20035;-84
2021/09/12 09:34:33;;;;;;;11.57;10.38;;;;;;;20.76;69.83;101688.75;4927841;29;20031;-84
2021/09/12 09:37:18;;;;;;;12.43;10.95;;;;;;;20.55;69.71;101688.22;4930931;28;20031;-86
2021/09/12 09:39:56;;;;;;;16.65;11.50;;;;;;;20.54;69.02;101689.31;4927930;28;20054;-86
2021/09/12 09:42:38;;;;;;;14.90;10.27;;;;;;;20.61;69.52;101683.50;4934670;29;20035;-84
2021/09/12 09:45:18;;;;;;;11.00;9.05;;;;;;;20.76;68.53;101680.56;4932953;28;20027;-82
2021/09/12 09:47:46;;;;;;;11.40;9.98;;;;;;;20.70;67.62;101684.47;4949840;28;20095;-83
2021/09/12 09:50:18;;;;;;;13.43;9.82;;;;;;;20.64;67.96;101674.72;4933811;28;20023;-83
2021/09/12 09:52:49;;;;;;;16.58;11.75;;;;;;;20.69;67.92;101671.97;4926337;28;20506;-83
2021/09/12 09:55:16;;;;;;;19.88;13.88;;;;;;;21.48;66.16;101672.13;4930905;29;20036;-84
2021/09/12 09:57:45;;;;;;;15.13;10.70;;;;;;;21.67;65.17;101670.97;4932104;28;20610;-84
2021/09/12 10:00:11;;;;;;;23.67;11.70;;;;;;;21.51;64.37;101668.81;4928373;28;20023;-84
2021/09/12 10:02:38;;;;;;;16.67;10.95;;;;;;;21.32;65.94;101657.94;4924706;29;20027;-83
2021/09/12 10:05:06;;;;;;;13.02;10.00;;;;;;;21.67;64.15;101664.69;4929878;28;20045;-83
2021/09/12 10:07:34;;;;;;;14.90;9.93;;;;;;;21.42;64.93;101666.78;4925844;29;20031;-84
2021/09/12 10:10:06;;;;;;;13.25;10.05;;;;;;;21.28;65.25;101662.38;4928154;28;20123;-83
2021/09/12 10:12:34;;;;;;;11.65;7.75;;;;;;;21.40;63.94;101657.28;4944574;28;20523;-83
2021/09/12 10:15:07;;;;;;;10.07;7.65;;;;;;;21.19;64.47;101656.78;4930643;28;20023;-82
2021/09/12 10:17:35;;;;;;;8.80;7.10;;;;;;;21.26;64.52;101659.16;4929470;29;20098;-83
2021/09/12 10:20:10;;;;;;;8.70;7.80;;;;;;;21.22;64.64;101661.63;4945063;28;20433;-83
2021/09/12 10:22:54;;;;;;;10.02;7.68;;;;;;;21.91;64.03;101664.53;4931080;29;20090;-83
2021/09/12 10:25:24;;;;;;;10.38;8.02;;;;;;;22.41;61.64;101661.91;4941211;28;20023;-83
2021/09/12 10:27:56;;;;;;;7.75;6.28;;;;;;;22.31;60.15;101665.69;4929879;29;20032;-82
2021/09/12 10:30:28;;;;;;;8.38;7.47;;;;;;;21.98;60.73;101660.28;4924869;29;20043;-83
2021/09/12 10:33:06;;;;;;;9.57;8.30;;;;;;;22.03;61.79;101662.91;4933073;28;20141;-83
2021/09/12 10:36:02;;;;;;;9.60;6.88;;;;;;;21.96;61.96;101653.53;4942236;28;20039;-82
2021/09/12 10:38:39;;;;;;;14.02;10.70;;;;;;;21.67;61.74;101664.69;4941873;28;20515;-82
2021/09/12 10:41:04;;;;;;;22.48;16.60;;;;;;;22.03;60.88;101662.91;4931175;28;20112;-83
2021/09/12 10:43:30;;;;;;;9.43;6.78;;;;;;;21.41;62.23;101664.34;4931490;28;20027;-83
2021/09/12 10:46:02;;;;;;;8.20;6.57;;;;;;;21.41;61.69;101667.06;4929165;28;20438;-82
2021/09/12 10:48:29;;;;;;;11.50;6.93;;;;;;;21.68;62.30;101667.13;4944705;28;20099;-83
2021/09/12 10:50:55;;;;;;;7.53;6.70;;;;;;;21.86;61.55;101659.97;4942163;28;20031;-83
2021/09/12 10:53:43;;;;;;;7.80;5.55;;;;;;;21.83;61.26;101662.50;4930840;29;20038;-83
2021/09/12 10:56:10;;;;;;;7.60;6.25;;;;;;;21.59;61.47;101662.69;4947553;29;20541;-82
2021/09/12 10:58:36;;;;;;;8.02;6.18;;;;;;;21.68;62.13;101666.31;4943228;28;20035;-82
2021/09/12 11:01:03;;;;;;;7.85;6.07;;;;;;;21.98;61.52;101654.84;4936859;28;20030;-82
2021/09/12 11:03:30;;;;;;;9.70;6.38;;;;;;;21.79;62.04;101666.94;4934761;29;20031;-82
2021/09/12 11:05:56;;;;;;;7.15;6.45;;;;;;;22.15;60.18;101658.91;4934428;28;20236;-82
2021/09/12 11:08:32;;;;;;;7.93;6.18;;;;;;;22.37;60.00;101661.72;4945423;28;20953;-82
2021/09/12 11:10:58;;;;;;;6.88;5.80;;;;;;;22.50;59.47;101660.91;4949861;28;20039;-82
2021/09/12 11:13:25;;;;;;;7.25;6.22;;;;;;;22.42;59.01;101666.25;4950570;28;20040;-82
2021/09/12 11:15:54;;;;;;;7.82;6.05;;;;;;;22.17;60.30;101657.50;4952499;28;20035;-82